^^
Station Historical Data
Daily Summary for January 29, 2018 Units:  Both    English   Metric
« Previous Day
Next Day »
Daily Weekly Monthly Yearly Custom
  High: Low: Average:
Temperature: TemperatureC °F /  -17.8 °C -1.0 °F /  -18.3 °C -0.2 °F /  -17.9 °C
Dew Point: DewpointC °F /  -17.8 °C -1.8 °F /  -18.8 °C -1.1 °F /  -18.4 °C
Humidity: Humidity% 94% 94%
Wind Speed: WindSpeedKMHmph /  0km/h - 1mph /  1.6km/h
Wind Gust: WindSpeedGustKMHmph /  0km/h - -
Wind- - ENE
Pressure: PressurehPa in /  0 hPa 998.5 in /  33809.2 hPa -
Precipitation: 0.0 in /  0 mm    
Historical Graphs
 
 
Tabular Data for January 29, 2018
Time Temperature Dew Point Pressure Wind Wind Speed Wind Gust Humidity Rainfall Rate (Hourly) solar Conditions
TemperatureC °F /  -17.8 °C DewpointC °F /  -17.8 °C PressurehPain /  0hPa Calm     Humidity% HourlyPrecipMMin /  0mm SoftwareType W/m2 Conditions
00:02 0.4 °F /  -17.6 °C -0.4 °F /  -18 °C 1002.9in /  33958.2hPa ENE 4.0mph /  6.4km/h 5.6mph /  9km/h 94% 0.0in /  0mm WeatherDisplay:10.37 W/m2 RA
00:07 0.4 °F /  -17.6 °C -0.4 °F /  -18 °C 1002.9in /  33958.2hPa Calm   3.2mph /  5.1km/h 94% 0.0in /  0mm WeatherDisplay:10.37 W/m2 RA
00:12 0.4 °F /  -17.6 °C -0.4 °F /  -18 °C 1002.9in /  33958.2hPa ENE 1.1mph /  1.8km/h 5.6mph /  9km/h 94% 0.0in /  0mm WeatherDisplay:10.37 W/m2 FEW
00:17 0.4 °F /  -17.6 °C -0.4 °F /  -18 °C 1002.9in /  33958.2hPa Calm   5.6mph /  9km/h 94% 0.0in /  0mm WeatherDisplay:10.37 W/m2 FEW
00:22 0.4 °F /  -17.6 °C -0.4 °F /  -18 °C 1002.9in /  33958.2hPa NE 2.6mph /  4.2km/h 7.4mph /  11.9km/h 94% 0.0in /  0mm WeatherDisplay:10.37 W/m2 FEW
00:27 0.4 °F /  -17.6 °C -0.4 °F /  -18 °C 1002.9in /  33958.2hPa NE 1.3mph /  2.1km/h 5.6mph /  9km/h 94% 0.0in /  0mm WeatherDisplay:10.37 W/m2 FEW
00:32 0.4 °F /  -17.6 °C -0.4 °F /  -18 °C 1002.9in /  33958.2hPa ENE 1.3mph /  2.1km/h 5.6mph /  9km/h 94% 0.0in /  0mm WeatherDisplay:10.37 W/m2 FEW
00:37 0.4 °F /  -17.6 °C -0.4 °F /  -18 °C 1002.9in /  33958.2hPa ENE 1.4mph /  2.3km/h 5.6mph /  9km/h 94% 0.0in /  0mm WeatherDisplay:10.37 W/m2 FEW
00:42 0.4 °F /  -17.6 °C -0.4 °F /  -18 °C 1002.9in /  33958.2hPa Calm   5.6mph /  9km/h 94% 0.0in /  0mm WeatherDisplay:10.37 W/m2 FEW
00:47 0.4 °F /  -17.6 °C -0.4 °F /  -18 °C 1002.9in /  33958.2hPa ENE 0.3mph /  0.5km/h 3.7mph /  6km/h 94% 0.0in /  0mm WeatherDisplay:10.37 W/m2 FEW
00:52 0.3 °F /  -17.6 °C -0.5 °F /  -18.1 °C 1002.9in /  33958.2hPa ENE 2.3mph /  3.7km/h 7.4mph /  11.9km/h 94% 0.0in /  0mm WeatherDisplay:10.37 W/m2 FEW
00:57 0.3 °F /  -17.6 °C -0.5 °F /  -18.1 °C 1002.9in /  33958.2hPa ENE 5.3mph /  8.5km/h 9.3mph /  15km/h 94% 0.0in /  0mm WeatherDisplay:10.37 W/m2 FEW
01:02 0.3 °F /  -17.6 °C -0.5 °F /  -18.1 °C 1002.9in /  33958.2hPa Calm   5.6mph /  9km/h 94% 0.0in /  0mm WeatherDisplay:10.37 W/m2 FEW
01:07 0.3 °F /  -17.6 °C -0.5 °F /  -18.1 °C 1002.9in /  33958.2hPa ENE 0.6mph /  1km/h 5.6mph /  9km/h 94% 0.0in /  0mm WeatherDisplay:10.37 W/m2 FEW
01:12 0.3 °F /  -17.6 °C -0.5 °F /  -18.1 °C 1002.9in /  33958.2hPa Calm   1.6mph /  2.6km/h 94% 0.0in /  0mm WeatherDisplay:10.37 W/m2 FEW
01:17 0.3 °F /  -17.6 °C -0.6 °F /  -18.1 °C 1002.9in /  33958.2hPa ENE 3.1mph /  5km/h 6.4mph /  10.3km/h 94% 0.0in /  0mm WeatherDisplay:10.37 W/m2 FEW
01:22 0.3 °F /  -17.6 °C -0.6 °F /  -18.1 °C 1002.9in /  33958.2hPa East 1.3mph /  2.1km/h 3.7mph /  6km/h 94% 0.0in /  0mm WeatherDisplay:10.37 W/m2 FEW
01:27 0.3 °F /  -17.6 °C -0.6 °F /  -18.1 °C 1002.9in /  33958.2hPa East 0.5mph /  0.8km/h 5.6mph /  9km/h 94% 0.0in /  0mm WeatherDisplay:10.37 W/m2 FEW
01:32 0.3 °F /  -17.6 °C -0.6 °F /  -18.1 °C 1002.9in /  33958.2hPa ENE 1.3mph /  2.1km/h 4.8mph /  7.7km/h 94% 0.0in /  0mm WeatherDisplay:10.37 W/m2 FEW
01:37 0.3 °F /  -17.6 °C -0.6 °F /  -18.1 °C 1002.9in /  33958.2hPa ENE 1.6mph /  2.6km/h 5.6mph /  9km/h 94% 0.0in /  0mm WeatherDisplay:10.37 W/m2 FEW
01:42 0.3 °F /  -17.6 °C -0.6 °F /  -18.1 °C 1002.9in /  33958.2hPa ENE 2.4mph /  3.9km/h 6.4mph /  10.3km/h 94% 0.0in /  0mm WeatherDisplay:10.37 W/m2 FEW
01:47 0.2 °F /  -17.7 °C -0.6 °F /  -18.1 °C 1002.9in /  33958.2hPa NE 2.3mph /  3.7km/h 5.6mph /  9km/h 94% 0.0in /  0mm WeatherDisplay:10.37 W/m2 FEW
01:52 0.2 °F /  -17.7 °C -0.6 °F /  -18.1 °C 1002.9in /  33958.2hPa ENE 2.1mph /  3.4km/h 7.4mph /  11.9km/h 94% 0.0in /  0mm WeatherDisplay:10.37 W/m2 FEW
01:58 0.2 °F /  -17.7 °C -0.6 °F /  -18.1 °C 1002.9in /  33958.2hPa NNE 2.3mph /  3.7km/h 7.4mph /  11.9km/h 94% 0.0in /  0mm WeatherDisplay:10.37 W/m2 FEW
02:03 0.2 °F /  -17.7 °C -0.6 °F /  -18.1 °C 1002.9in /  33958.2hPa NE 0.2mph /  0.3km/h 3.7mph /  6km/h 94% 0.0in /  0mm WeatherDisplay:10.37 W/m2 FEW
02:08 0.2 °F /  -17.7 °C -0.7 °F /  -18.2 °C 1002.9in /  33958.2hPa ENE 1.6mph /  2.6km/h 5.6mph /  9km/h 94% 0.0in /  0mm WeatherDisplay:10.37 W/m2 FEW
02:13 0.2 °F /  -17.7 °C -0.7 °F /  -18.2 °C 1002.9in /  33958.2hPa ENE 0.6mph /  1km/h 3.7mph /  6km/h 94% 0.0in /  0mm WeatherDisplay:10.37 W/m2 FEW
02:18 0.2 °F /  -17.7 °C -0.7 °F /  -18.2 °C 1002.9in /  33958.2hPa NE 2.9mph /  4.7km/h 5.6mph /  9km/h 94% 0.0in /  0mm WeatherDisplay:10.37 W/m2 FEW
02:23 0.2 °F /  -17.7 °C -0.7 °F /  -18.2 °C 1002.9in /  33958.2hPa ENE 3.7mph /  6km/h 7.4mph /  11.9km/h 94% 0.0in /  0mm WeatherDisplay:10.37 W/m2 FEW
02:28 0.2 °F /  -17.7 °C -0.7 °F /  -18.2 °C 1002.9in /  33958.2hPa NE 3.1mph /  5km/h 5.6mph /  9km/h 94% 0.0in /  0mm WeatherDisplay:10.37 W/m2 FEW
02:33 0.2 °F /  -17.7 °C -0.7 °F /  -18.2 °C 1002.9in /  33958.2hPa ENE 3.9mph /  6.3km/h 8.0mph /  12.9km/h 94% 0.0in /  0mm WeatherDisplay:10.37 W/m2 FEW
02:38 0.2 °F /  -17.7 °C -0.7 °F /  -18.2 °C 1003.3in /  33971.7hPa Calm   5.6mph /  9km/h 94% 0.0in /  0mm WeatherDisplay:10.37 W/m2 FEW
02:43 0.1 °F /  -17.7 °C -0.7 °F /  -18.2 °C 1003.3in /  33971.7hPa NE 4.5mph /  7.2km/h 5.6mph /  9km/h 94% 0.0in /  0mm WeatherDisplay:10.37 W/m2 FEW
02:48 0.1 °F /  -17.7 °C -0.7 °F /  -18.2 °C 1003.3in /  33971.7hPa NE 0.6mph /  1km/h 5.6mph /  9km/h 94% 0.0in /  0mm WeatherDisplay:10.37 W/m2 FEW
02:53 0.1 °F /  -17.7 °C -0.7 °F /  -18.2 °C 1003.3in /  33971.7hPa ENE 1.6mph /  2.6km/h 7.4mph /  11.9km/h 94% 0.0in /  0mm WeatherDisplay:10.37 W/m2 FEW
02:58 0.1 °F /  -17.7 °C -0.8 °F /  -18.2 °C 1003.3in /  33971.7hPa NE 1.0mph /  1.6km/h 5.6mph /  9km/h 94% 0.0in /  0mm WeatherDisplay:10.37 W/m2 FEW
03:03 0.1 °F /  -17.7 °C -0.8 °F /  -18.2 °C 1003.3in /  33971.7hPa ENE 0.8mph /  1.3km/h 6.4mph /  10.3km/h 94% 0.0in /  0mm WeatherDisplay:10.37 W/m2 FEW
03:08 0.1 °F /  -17.7 °C -0.8 °F /  -18.2 °C 1003.3in /  33971.7hPa ENE 3.9mph /  6.3km/h 7.4mph /  11.9km/h 94% 0.0in /  0mm WeatherDisplay:10.37 W/m2 FEW
03:13 0.1 °F /  -17.7 °C -0.8 °F /  -18.2 °C 1003.3in /  33971.7hPa ENE 1.6mph /  2.6km/h 5.6mph /  9km/h 94% 0.0in /  0mm WeatherDisplay:10.37 W/m2 FEW
03:18 0.0 °F /  -17.8 °C -0.8 °F /  -18.2 °C 1003.3in /  33971.7hPa NE 2.1mph /  3.4km/h 8.0mph /  12.9km/h 94% 0.0in /  0mm WeatherDisplay:10.37 W/m2 FEW
03:23 0.0 °F /  -17.8 °C -0.8 °F /  -18.2 °C 1003.3in /  33971.7hPa Calm     94% 0.0in /  0mm WeatherDisplay:10.37 W/m2 FEW
03:28 0.0 °F /  -17.8 °C -0.8 °F /  -18.2 °C 1003.3in /  33971.7hPa East 1.4mph /  2.3km/h 6.4mph /  10.3km/h 94% 0.0in /  0mm WeatherDisplay:10.37 W/m2 FEW
03:33 -0.1 °F /  -17.8 °C -0.9 °F /  -18.3 °C 1003.3in /  33971.7hPa ENE 5.0mph /  8km/h 7.4mph /  11.9km/h 94% 0.0in /  0mm WeatherDisplay:10.37 W/m2 FEW
03:38 -0.1 °F /  -17.8 °C -0.9 °F /  -18.3 °C 1003.3in /  33971.7hPa NE 4.3mph /  6.9km/h 7.4mph /  11.9km/h 94% 0.0in /  0mm WeatherDisplay:10.37 W/m2 FEW
03:43 -0.1 °F /  -17.8 °C -0.9 °F /  -18.3 °C 1003.3in /  33971.7hPa Calm   3.7mph /  6km/h 94% 0.0in /  0mm WeatherDisplay:10.37 W/m2 FEW
03:48 -0.1 °F /  -17.8 °C -0.9 °F /  -18.3 °C 1003.3in /  33971.7hPa NE 2.3mph /  3.7km/h 5.6mph /  9km/h 94% 0.0in /  0mm WeatherDisplay:10.37 W/m2 FEW
03:53 -0.1 °F /  -17.8 °C -0.9 °F /  -18.3 °C 1003.3in /  33971.7hPa ENE 1.1mph /  1.8km/h 5.6mph /  9km/h 94% 0.0in /  0mm WeatherDisplay:10.37 W/m2 FEW
03:58 -0.1 °F /  -17.8 °C -0.9 °F /  -18.3 °C 1003.3in /  33971.7hPa NE 3.2mph /  5.1km/h 5.6mph /  9km/h 94% 0.0in /  0mm WeatherDisplay:10.37 W/m2 FEW
04:03 -0.2 °F /  -17.9 °C -1.0 °F /  -18.3 °C 1003.3in /  33971.7hPa NE 1.9mph /  3.1km/h 5.6mph /  9km/h 94% 0.0in /  0mm WeatherDisplay:10.37 W/m2 FEW
04:08 -0.2 °F /  -17.9 °C -1.0 °F /  -18.3 °C 1003.3in /  33971.7hPa ENE 5.6mph /  9km/h 11.1mph /  17.9km/h 94% 0.0in /  0mm WeatherDisplay:10.37 W/m2 FEW
04:13 -0.2 °F /  -17.9 °C -1.0 °F /  -18.3 °C 1003.3in /  33971.7hPa Calm   5.6mph /  9km/h 94% 0.0in /  0mm WeatherDisplay:10.37 W/m2 FEW
04:18 -0.2 °F /  -17.9 °C -1.0 °F /  -18.3 °C 1003.3in /  33971.7hPa ENE 2.1mph /  3.4km/h 4.8mph /  7.7km/h 94% 0.0in /  0mm WeatherDisplay:10.37 W/m2 FEW
04:23 -0.2 °F /  -17.9 °C -1.0 °F /  -18.3 °C 1003.3in /  33971.7hPa NE 1.3mph /  2.1km/h 5.6mph /  9km/h 94% 0.0in /  0mm WeatherDisplay:10.37 W/m2 FEW
04:28 -0.2 °F /  -17.9 °C -1.1 °F /  -18.4 °C 1003.3in /  33971.7hPa Calm     94% 0.0in /  0mm WeatherDisplay:10.37 W/m2 FEW
04:33 -0.2 °F /  -17.9 °C -1.1 °F /  -18.4 °C 1003.3in /  33971.7hPa NE 0.2mph /  0.3km/h 5.6mph /  9km/h 94% 0.0in /  0mm WeatherDisplay:10.37 W/m2 FEW
04:38 -0.2 °F /  -17.9 °C -1.1 °F /  -18.4 °C 1003.3in /  33971.7hPa Calm   7.4mph /  11.9km/h 94% 0.0in /  0mm WeatherDisplay:10.37 W/m2 FEW
04:43 -0.2 °F /  -17.9 °C -1.1 °F /  -18.4 °C 1003.3in /  33971.7hPa ENE 5.1mph /  8.2km/h 13.0mph /  20.9km/h 94% 0.0in /  0mm WeatherDisplay:10.37 W/m2 FEW
04:48 -0.2 °F /  -17.9 °C -1.1 °F /  -18.4 °C 1003.3in /  33971.7hPa ENE 1.6mph /  2.6km/h 5.6mph /  9km/h 94% 0.0in /  0mm WeatherDisplay:10.37 W/m2 FEW
04:53 -0.3 °F /  -17.9 °C -1.1 °F /  -18.4 °C 1003.3in /  33971.7hPa Calm     94% 0.0in /  0mm WeatherDisplay:10.37 W/m2 FEW
04:58 -0.3 °F /  -17.9 °C -1.1 °F /  -18.4 °C 1003.3in /  33971.7hPa Calm   3.7mph /  6km/h 94% 0.0in /  0mm WeatherDisplay:10.37 W/m2 FEW
05:03 -0.2 °F /  -17.9 °C -1.1 °F /  -18.4 °C 1003.3in /  33971.7hPa Calm     94% 0.0in /  0mm WeatherDisplay:10.37 W/m2 FEW
05:08 -0.2 °F /  -17.9 °C -1.1 °F /  -18.4 °C 1003.3in /  33971.7hPa Calm     94% 0.0in /  0mm WeatherDisplay:10.37 W/m2 FEW
05:13 -0.2 °F /  -17.9 °C -1.1 °F /  -18.4 °C 1003.3in /  33971.7hPa ENE 0.6mph /  1km/h 3.7mph /  6km/h 94% 0.0in /  0mm WeatherDisplay:10.37 W/m2 FEW
05:18 -0.3 °F /  -17.9 °C -1.1 °F /  -18.4 °C 1003.3in /  33971.7hPa ENE 2.6mph /  4.2km/h 5.6mph /  9km/h 94% 0.0in /  0mm WeatherDisplay:10.37 W/m2 FEW
05:23 -0.3 °F /  -17.9 °C -1.1 °F /  -18.4 °C 1003.3in /  33971.7hPa Calm     94% 0.0in /  0mm WeatherDisplay:10.37 W/m2 FEW
05:28 -0.3 °F /  -17.9 °C -1.1 °F /  -18.4 °C 1003.3in /  33971.7hPa Calm   1.9mph /  3.1km/h 94% 0.0in /  0mm WeatherDisplay:10.37 W/m2 FEW
05:33 -0.3 °F /  -17.9 °C -1.1 °F /  -18.4 °C 1003.3in /  33971.7hPa Calm     94% 0.0in /  0mm WeatherDisplay:10.37 W/m2 FEW
05:38 -0.3 °F /  -17.9 °C -1.1 °F /  -18.4 °C 1003.3in /  33971.7hPa NE 0.2mph /  0.3km/h 1.9mph /  3.1km/h 94% 0.0in /  0mm WeatherDisplay:10.37 W/m2 FEW
05:43 -0.3 °F /  -17.9 °C -1.1 °F /  -18.4 °C 1003.3in /  33971.7hPa Calm   1.9mph /  3.1km/h 94% 0.0in /  0mm WeatherDisplay:10.37 W/m2 FEW
05:48 -0.3 °F /  -17.9 °C -1.1 °F /  -18.4 °C 1003.3in /  33971.7hPa ENE 1.6mph /  2.6km/h 5.6mph /  9km/h 94% 0.0in /  0mm WeatherDisplay:10.37 W/m2 FEW
05:53 -0.3 °F /  -17.9 °C -1.1 °F /  -18.4 °C 1003.3in /  33971.7hPa NE 0.2mph /  0.3km/h 3.7mph /  6km/h 94% 0.0in /  0mm WeatherDisplay:10.37 W/m2 FEW
05:58 -0.3 °F /  -17.9 °C -1.2 °F /  -18.4 °C 1003.3in /  33971.7hPa ENE 3.4mph /  5.5km/h 6.4mph /  10.3km/h 94% 0.0in /  0mm WeatherDisplay:10.37 W/m2 FEW
06:03 -0.3 °F /  -17.9 °C -1.1 °F /  -18.4 °C 1003.6in /  33981.9hPa NE 0.3mph /  0.5km/h 3.2mph /  5.1km/h 94% 0.0in /  0mm WeatherDisplay:10.37 W/m2 FEW
06:08 -0.3 °F /  -17.9 °C -1.2 °F /  -18.4 °C 1003.6in /  33981.9hPa Calm   3.7mph /  6km/h 94% 0.0in /  0mm WeatherDisplay:10.37 W/m2 FEW
06:13 -0.3 °F /  -17.9 °C -1.2 °F /  -18.4 °C 1003.6in /  33981.9hPa ENE 4.3mph /  6.9km/h 5.6mph /  9km/h 94% 0.0in /  0mm WeatherDisplay:10.37 W/m2 FEW
06:18 -0.3 °F /  -17.9 °C -1.2 °F /  -18.4 °C 1003.3in /  33971.7hPa Calm     94% 0.0in /  0mm WeatherDisplay:10.37 W/m2 FEW
06:23 -0.3 °F /  -17.9 °C -1.2 °F /  -18.4 °C 1003.6in /  33981.9hPa NE 0.3mph /  0.5km/h 3.7mph /  6km/h 94% 0.0in /  0mm WeatherDisplay:10.37 W/m2 FEW
06:28 -0.3 °F /  -17.9 °C -1.2 °F /  -18.4 °C 1003.6in /  33981.9hPa Calm     94% 0.0in /  0mm WeatherDisplay:10.37 W/m2 FEW
06:33 -0.3 °F /  -17.9 °C -1.2 °F /  -18.4 °C 1003.6in /  33981.9hPa NE 2.9mph /  4.7km/h 5.6mph /  9km/h 94% 0.0in /  0mm WeatherDisplay:10.37 W/m2 FEW
06:38 -0.3 °F /  -17.9 °C -1.2 °F /  -18.4 °C 1003.6in /  33981.9hPa Calm   1.6mph /  2.6km/h 94% 0.0in /  0mm WeatherDisplay:10.37 W/m2 FEW
06:43 -0.3 °F /  -17.9 °C -1.1 °F /  -18.4 °C 1003.6in /  33981.9hPa Calm     94% 0.0in /  0mm WeatherDisplay:10.37 W/m2 FEW
06:48 -0.3 °F /  -17.9 °C -1.2 °F /  -18.4 °C 1003.6in /  33981.9hPa Calm     94% 0.0in /  0mm WeatherDisplay:10.37 W/m2 FEW
06:53 -0.3 °F /  -17.9 °C -1.2 °F /  -18.4 °C 1003.6in /  33981.9hPa Calm     94% 0.0in /  0mm WeatherDisplay:10.37 W/m2 FEW
06:58 -0.3 °F /  -17.9 °C -1.2 °F /  -18.4 °C 1003.6in /  33981.9hPa Calm     94% 0.0in /  0mm WeatherDisplay:10.37 W/m2 FEW
07:03 -0.3 °F /  -17.9 °C -1.2 °F /  -18.4 °C 1003.9in /  33992.1hPa NE 0.2mph /  0.3km/h 1.9mph /  3.1km/h 94% 0.0in /  0mm WeatherDisplay:10.37 W/m2 FEW
07:08 -0.3 °F /  -17.9 °C -1.2 °F /  -18.4 °C 1003.9in /  33992.1hPa Calm     94% 0.0in /  0mm WeatherDisplay:10.37 W/m2 FEW
07:13 -0.3 °F /  -17.9 °C -1.2 °F /  -18.4 °C 1003.9in /  33992.1hPa NE 0.2mph /  0.3km/h 3.7mph /  6km/h 94% 0.0in /  0mm WeatherDisplay:10.37 W/m2 FEW
07:18 -0.3 °F /  -17.9 °C -1.2 °F /  -18.4 °C 1003.9in /  33992.1hPa Calm     94% 0.0in /  0mm WeatherDisplay:10.37 W/m2 FEW
07:23 -0.3 °F /  -17.9 °C -1.2 °F /  -18.4 °C 1003.9in /  33992.1hPa Calm     94% 0.0in /  0mm WeatherDisplay:10.37 W/m2 FEW
07:28 -0.3 °F /  -17.9 °C -1.2 °F /  -18.4 °C 1003.9in /  33992.1hPa Calm     94% 0.0in /  0mm WeatherDisplay:10.37 W/m2 FEW
07:33 -0.3 °F /  -17.9 °C -1.1 °F /  -18.4 °C 1003.9in /  33992.1hPa Calm     94% 0.0in /  0mm WeatherDisplay:10.37 W/m2 FEW
07:38 -0.3 °F /  -17.9 °C -1.2 °F /  -18.4 °C 1003.9in /  33992.1hPa Calm   1.6mph /  2.6km/h 94% 0.0in /  0mm WeatherDisplay:10.37 W/m2 FEW
07:43 -0.3 °F /  -17.9 °C -1.2 °F /  -18.4 °C 1003.9in /  33992.1hPa NE 2.6mph /  4.2km/h 5.6mph /  9km/h 94% 0.0in /  0mm WeatherDisplay:10.37 W/m2 FEW
07:48 -0.3 °F /  -17.9 °C -1.2 °F /  -18.4 °C 1003.9in /  33992.1hPa NE 2.4mph /  3.9km/h 5.6mph /  9km/h 94% 0.0in /  0mm WeatherDisplay:10.37 W/m2 FEW
07:53 -0.3 °F /  -17.9 °C -1.2 °F /  -18.4 °C 1003.9in /  33992.1hPa NE 1.4mph /  2.3km/h 3.7mph /  6km/h 94% 0.0in /  0mm WeatherDisplay:10.37 W/m2 FEW
07:58 -0.3 °F /  -17.9 °C -1.1 °F /  -18.4 °C 1003.9in /  33992.1hPa NE 3.5mph /  5.6km/h 5.6mph /  9km/h 94% 0.0in /  0mm WeatherDisplay:10.37 W/m2 FEW
08:03 -0.3 °F /  -17.9 °C -1.1 °F /  -18.4 °C 1003.9in /  33992.1hPa Calm     94% 0.0in /  0mm WeatherDisplay:10.37 W/m2 FEW
08:08 -0.3 °F /  -17.9 °C -1.1 °F /  -18.4 °C 1003.9in /  33992.1hPa Calm     94% 0.0in /  0mm WeatherDisplay:10.37 W/m2 FEW
08:13 -0.3 °F /  -17.9 °C -1.2 °F /  -18.4 °C 1003.9in /  33992.1hPa Calm     94% 0.0in /  0mm WeatherDisplay:10.37 W/m2 FEW
08:18 -0.3 °F /  -17.9 °C -1.2 °F /  -18.4 °C 1003.9in /  33992.1hPa Calm     94% 0.0in /  0mm WeatherDisplay:10.37 W/m2 FEW
08:23 -0.3 °F /  -17.9 °C -1.1 °F /  -18.4 °C 1003.9in /  33992.1hPa NE 6.1mph /  9.8km/h 9.3mph /  15km/h 94% 0.0in /  0mm WeatherDisplay:10.37 W/m2 FEW
08:28 -0.3 °F /  -17.9 °C -1.1 °F /  -18.4 °C 1003.9in /  33992.1hPa NE 3.7mph /  6km/h 5.6mph /  9km/h 94% 0.0in /  0mm WeatherDisplay:10.37 W/m2 FEW
08:33 -0.3 °F /  -17.9 °C -1.2 °F /  -18.4 °C 1004.3in /  34005.6hPa NE 4.7mph /  7.6km/h 5.6mph /  9km/h 94% 0.0in /  0mm WeatherDisplay:10.37 W/m2 FEW
08:38 -0.3 °F /  -17.9 °C -1.1 °F /  -18.4 °C 1003.9in /  33992.1hPa Calm     94% 0.0in /  0mm WeatherDisplay:10.37 W/m2 FEW
08:43 -0.3 °F /  -17.9 °C -1.1 °F /  -18.4 °C 1004.3in /  34005.6hPa NE 0.6mph /  1km/h 3.2mph /  5.1km/h 94% 0.0in /  0mm WeatherDisplay:10.37 W/m2 FEW
08:48 -0.3 °F /  -17.9 °C -1.1 °F /  -18.4 °C 1004.3in /  34005.6hPa NE 0.6mph /  1km/h 5.6mph /  9km/h 94% 0.0in /  0mm WeatherDisplay:10.37 W/m2 FEW
08:53 -0.3 °F /  -17.9 °C -1.1 °F /  -18.4 °C 1004.3in /  34005.6hPa Calm     94% 0.0in /  0mm WeatherDisplay:10.37 W/m2 FEW
08:58 -0.3 °F /  -17.9 °C -1.1 °F /  -18.4 °C 1004.3in /  34005.6hPa Calm     94% 0.0in /  0mm WeatherDisplay:10.37 W/m2 FEW
09:03 -0.3 °F /  -17.9 °C -1.1 °F /  -18.4 °C 1004.3in /  34005.6hPa Calm     94% 0.0in /  0mm WeatherDisplay:10.37 W/m2 FEW
09:08 -0.3 °F /  -17.9 °C -1.1 °F /  -18.4 °C 1004.3in /  34005.6hPa Calm     94% 0.0in /  0mm WeatherDisplay:10.37 W/m2 FEW
09:13 -0.3 °F /  -17.9 °C -1.1 °F /  -18.4 °C 1004.3in /  34005.6hPa Calm     94% 0.0in /  0mm WeatherDisplay:10.37 W/m2 FEW
09:18 -0.3 °F /  -17.9 °C -1.1 °F /  -18.4 °C 1004.3in /  34005.6hPa Calm     94% 0.0in /  0mm WeatherDisplay:10.37 W/m2 FEW
09:23 -0.3 °F /  -17.9 °C -1.1 °F /  -18.4 °C 1004.3in /  34005.6hPa Calm     94% 0.0in /  0mm WeatherDisplay:10.37 W/m2 FEW
09:28 -0.2 °F /  -17.9 °C -1.1 °F /  -18.4 °C 1004.3in /  34005.6hPa Calm     94% 0.0in /  0mm WeatherDisplay:10.37 W/m2 FEW
09:33 -0.2 °F /  -17.9 °C -1.1 °F /  -18.4 °C 1004.3in /  34005.6hPa Calm     94% 0.0in /  0mm WeatherDisplay:10.37 W/m2 FEW
09:38 -0.3 °F /  -17.9 °C -1.1 °F /  -18.4 °C 1004.3in /  34005.6hPa Calm   1.9mph /  3.1km/h 94% 0.0in /  0mm WeatherDisplay:10.37 W/m2 FEW
09:43 -0.3 °F /  -17.9 °C -1.1 °F /  -18.4 °C 1004.6in /  34015.8hPa Calm     94% 0.0in /  0mm WeatherDisplay:10.37 W/m2 FEW
09:48 -0.3 °F /  -17.9 °C -1.1 °F /  -18.4 °C 1004.3in /  34005.6hPa Calm     94% 0.0in /  0mm WeatherDisplay:10.37 W/m2 FEW
09:53 -0.3 °F /  -17.9 °C -1.1 °F /  -18.4 °C 1004.3in /  34005.6hPa Calm     94% 0.0in /  0mm WeatherDisplay:10.37 W/m2 FEW
09:58 -0.3 °F /  -17.9 °C -1.1 °F /  -18.4 °C 1004.3in /  34005.6hPa Calm     94% 0.0in /  0mm WeatherDisplay:10.37 W/m2 FEW
10:03 -0.3 °F /  -17.9 °C -1.1 °F /  -18.4 °C 1004.3in /  34005.6hPa Calm     94% 0.0in /  0mm WeatherDisplay:10.37 W/m2 FEW
10:08 -0.3 °F /  -17.9 °C -1.1 °F /  -18.4 °C 1004.3in /  34005.6hPa Calm     94% 0.0in /  0mm WeatherDisplay:10.37 W/m2 FEW
10:13 -0.2 °F /  -17.9 °C -1.1 °F /  -18.4 °C 1004.3in /  34005.6hPa Calm     94% 0.0in /  0mm WeatherDisplay:10.37 W/m2 FEW
10:18 -0.2 °F /  -17.9 °C -1.1 °F /  -18.4 °C 1004.3in /  34005.6hPa Calm     94% 0.0in /  0mm WeatherDisplay:10.37 W/m2 FEW
10:23 -0.2 °F /  -17.9 °C -1.1 °F /  -18.4 °C 1004.3in /  34005.6hPa NE 0.6mph /  1km/h 3.2mph /  5.1km/h 94% 0.0in /  0mm WeatherDisplay:10.37 W/m2 FEW
10:28 -0.2 °F /  -17.9 °C -1.1 °F /  -18.4 °C 1004.3in /  34005.6hPa Calm     94% 0.0in /  0mm WeatherDisplay:10.37 W/m2 FEW
10:33 -0.2 °F /  -17.9 °C -1.1 °F /  -18.4 °C 1004.3in /  34005.6hPa Calm   1.9mph /  3.1km/h 94% 0.0in /  0mm WeatherDisplay:10.37 W/m2 FEW
10:38 -0.2 °F /  -17.9 °C -1.0 °F /  -18.3 °C 1004.3in /  34005.6hPa Calm     94% 0.0in /  0mm WeatherDisplay:10.37 W/m2 FEW
10:43 -0.2 °F /  -17.9 °C -1.0 °F /  -18.3 °C 1004.3in /  34005.6hPa Calm     94% 0.0in /  0mm WeatherDisplay:10.37 W/m2 FEW
10:48 -0.2 °F /  -17.9 °C -1.0 °F /  -18.3 °C 1004.3in /  34005.6hPa Calm     94% 0.0in /  0mm WeatherDisplay:10.37 W/m2 FEW
10:53 -0.2 °F /  -17.9 °C -1.0 °F /  -18.3 °C 1004.3in /  34005.6hPa NE 1.1mph /  1.8km/h 1.6mph /  2.6km/h 94% 0.0in /  0mm WeatherDisplay:10.37 W/m2 FEW
10:58 -0.2 °F /  -17.9 °C -1.0 °F /  -18.3 °C 1004.3in /  34005.6hPa Calm     94% 0.0in /  0mm WeatherDisplay:10.37 W/m2 FEW
11:03 -0.2 °F /  -17.9 °C -1.0 °F /  -18.3 °C 1004.3in /  34005.6hPa Calm     94% 0.0in /  0mm WeatherDisplay:10.37 W/m2 FEW
11:09 -0.2 °F /  -17.9 °C -1.0 °F /  -18.3 °C 1003.9in /  33992.1hPa Calm     94% 0.0in /  0mm WeatherDisplay:10.37 W/m2 FEW
11:13 -0.2 °F /  -17.9 °C -1.0 °F /  -18.3 °C 1003.9in /  33992.1hPa Calm     94% 0.0in /  0mm WeatherDisplay:10.37 W/m2 FEW
11:19 -0.2 °F /  -17.9 °C -1.0 °F /  -18.3 °C 1003.9in /  33992.1hPa NE 0.2mph /  0.3km/h   94% 0.0in /  0mm WeatherDisplay:10.37 W/m2 FEW
11:24 -0.2 °F /  -17.9 °C -1.0 °F /  -18.3 °C 1003.9in /  33992.1hPa Calm     94% 0.0in /  0mm WeatherDisplay:10.37 W/m2 FEW
11:29 -0.2 °F /  -17.9 °C -1.0 °F /  -18.3 °C 1003.6in /  33981.9hPa NE 2.3mph /  3.7km/h 5.6mph /  9km/h 94% 0.0in /  0mm WeatherDisplay:10.37 W/m2 FEW
11:34 -0.2 °F /  -17.9 °C -1.0 °F /  -18.3 °C 1003.6in /  33981.9hPa NE 1.4mph /  2.3km/h 4.8mph /  7.7km/h 94% 0.0in /  0mm WeatherDisplay:10.37 W/m2 FEW
11:39 -0.2 °F /  -17.9 °C -1.0 °F /  -18.3 °C 1003.6in /  33981.9hPa NE 1.0mph /  1.6km/h 4.8mph /  7.7km/h 94% 0.0in /  0mm WeatherDisplay:10.37 W/m2 FEW
11:44 -0.2 °F /  -17.9 °C -1.0 °F /  -18.3 °C 1003.6in /  33981.9hPa NE 0.6mph /  1km/h   94% 0.0in /  0mm WeatherDisplay:10.37 W/m2 FEW
11:49 -0.2 °F /  -17.9 °C -1.0 °F /  -18.3 °C 1003.6in /  33981.9hPa NE 2.4mph /  3.9km/h 5.6mph /  9km/h 94% 0.0in /  0mm WeatherDisplay:10.37 W/m2 FEW
11:54 -0.2 °F /  -17.9 °C -1.0 °F /  -18.3 °C 1003.6in /  33981.9hPa NE 2.1mph /  3.4km/h 5.6mph /  9km/h 94% 0.0in /  0mm WeatherDisplay:10.37 W/m2 FEW
11:59 -0.2 °F /  -17.9 °C -1.0 °F /  -18.3 °C 1003.6in /  33981.9hPa NE 1.1mph /  1.8km/h 5.6mph /  9km/h 94% 0.0in /  0mm WeatherDisplay:10.37 W/m2 FEW
12:04 -0.2 °F /  -17.9 °C -1.0 °F /  -18.3 °C 1003.6in /  33981.9hPa ENE 0.6mph /  1km/h 5.6mph /  9km/h 94% 0.0in /  0mm WeatherDisplay:10.37 W/m2 FEW
12:09 -0.2 °F /  -17.9 °C -1.0 °F /  -18.3 °C 1003.6in /  33981.9hPa Calm     94% 0.0in /  0mm WeatherDisplay:10.37 W/m2 FEW
12:14 -0.1 °F /  -17.8 °C -0.9 °F /  -18.3 °C 1003.6in /  33981.9hPa ENE 3.4mph /  5.5km/h 5.6mph /  9km/h 94% 0.0in /  0mm WeatherDisplay:10.37 W/m2 FEW
12:19 -0.1 °F /  -17.8 °C -0.9 °F /  -18.3 °C 1003.6in /  33981.9hPa NE 2.9mph /  4.7km/h 5.6mph /  9km/h 94% 0.0in /  0mm WeatherDisplay:10.37 W/m2 FEW
12:24 -0.1 °F /  -17.8 °C -0.9 °F /  -18.3 °C 1003.6in /  33981.9hPa ENE 6.6mph /  10.6km/h 9.3mph /  15km/h 94% 0.0in /  0mm WeatherDisplay:10.37 W/m2 FEW
12:29 -0.1 °F /  -17.8 °C -0.9 °F /  -18.3 °C 1003.6in /  33981.9hPa ENE 0.3mph /  0.5km/h 3.7mph /  6km/h 94% 0.0in /  0mm WeatherDisplay:10.37 W/m2 FEW
12:34 -0.1 °F /  -17.8 °C -0.9 °F /  -18.3 °C 1003.6in /  33981.9hPa ENE 1.0mph /  1.6km/h 3.2mph /  5.1km/h 94% 0.0in /  0mm WeatherDisplay:10.37 W/m2 FEW
12:39 -0.1 °F /  -17.8 °C -0.9 °F /  -18.3 °C 1003.3in /  33971.7hPa Calm     94% 0.0in /  0mm WeatherDisplay:10.37 W/m2 FEW
12:44 -0.1 °F /  -17.8 °C -0.9 °F /  -18.3 °C 1003.3in /  33971.7hPa ENE 1.4mph /  2.3km/h 5.6mph /  9km/h 94% 0.0in /  0mm WeatherDisplay:10.37 W/m2 FEW
12:49 -0.1 °F /  -17.8 °C -0.9 °F /  -18.3 °C 1003.3in /  33971.7hPa ENE 1.6mph /  2.6km/h 3.7mph /  6km/h 94% 0.0in /  0mm WeatherDisplay:10.37 W/m2 FEW
12:54 -0.1 °F /  -17.8 °C -0.9 °F /  -18.3 °C 1003.3in /  33971.7hPa ENE 1.8mph /  2.9km/h 3.7mph /  6km/h 94% 0.0in /  0mm WeatherDisplay:10.37 W/m2 FEW
12:59 0.0 °F /  -17.8 °C -0.8 °F /  -18.2 °C 1003.3in /  33971.7hPa Calm     94% 0.0in /  0mm WeatherDisplay:10.37 W/m2 FEW
13:04 0.0 °F /  -17.8 °C -0.8 °F /  -18.2 °C 1003.3in /  33971.7hPa ENE 0.2mph /  0.3km/h 5.6mph /  9km/h 94% 0.0in /  0mm WeatherDisplay:10.37 W/m2 FEW
13:09 0.1 °F /  -17.7 °C -0.8 °F /  -18.2 °C 1003.3in /  33971.7hPa ENE 1.0mph /  1.6km/h 3.2mph /  5.1km/h 94% 0.0in /  0mm WeatherDisplay:10.37 W/m2 FEW
13:14 0.1 °F /  -17.7 °C -0.8 °F /  -18.2 °C 1003.3in /  33971.7hPa ENE 1.0mph /  1.6km/h 3.7mph /  6km/h 94% 0.0in /  0mm WeatherDisplay:10.37 W/m2 FEW
13:19 0.1 °F /  -17.7 °C -0.8 °F /  -18.2 °C 1003.3in /  33971.7hPa ENE 1.0mph /  1.6km/h 3.7mph /  6km/h 94% 0.0in /  0mm WeatherDisplay:10.37 W/m2 FEW
13:24 0.1 °F /  -17.7 °C -0.8 °F /  -18.2 °C 1003.3in /  33971.7hPa Calm     94% 0.0in /  0mm WeatherDisplay:10.37 W/m2 FEW
13:29 0.1 °F /  -17.7 °C -0.8 °F /  -18.2 °C 1002.9in /  33958.2hPa Calm     94% 0.0in /  0mm WeatherDisplay:10.37 W/m2 FEW
13:34 0.1 °F /  -17.7 °C -0.7 °F /  -18.2 °C 1002.9in /  33958.2hPa Calm     94% 0.0in /  0mm WeatherDisplay:10.37 W/m2 FEW
13:39 0.1 °F /  -17.7 °C -0.7 °F /  -18.2 °C 1002.9in /  33958.2hPa Calm     94% 0.0in /  0mm WeatherDisplay:10.37 W/m2 FEW
13:44 0.2 °F /  -17.7 °C -0.7 °F /  -18.2 °C 1002.9in /  33958.2hPa Calm     94% 0.0in /  0mm WeatherDisplay:10.37 W/m2 FEW
13:49 0.2 °F /  -17.7 °C -0.7 °F /  -18.2 °C 1002.9in /  33958.2hPa ENE 0.2mph /  0.3km/h 3.7mph /  6km/h 94% 0.0in /  0mm WeatherDisplay:10.37 W/m2 FEW
13:54 0.2 °F /  -17.7 °C -0.7 °F /  -18.2 °C 1002.9in /  33958.2hPa Calm     94% 0.0in /  0mm WeatherDisplay:10.37 W/m2 FEW
13:59 0.2 °F /  -17.7 °C -0.7 °F /  -18.2 °C 1002.9in /  33958.2hPa Calm     94% 0.0in /  0mm WeatherDisplay:10.37 W/m2 FEW
14:04 0.2 °F /  -17.7 °C -0.7 °F /  -18.2 °C 1002.9in /  33958.2hPa Calm     94% 0.0in /  0mm WeatherDisplay:10.37 W/m2 FEW
14:09 0.2 °F /  -17.7 °C -0.7 °F /  -18.2 °C 1002.9in /  33958.2hPa Calm     94% 0.0in /  0mm WeatherDisplay:10.37 W/m2 FEW
14:14 0.2 °F /  -17.7 °C -0.6 °F /  -18.1 °C 1002.9in /  33958.2hPa Calm     94% 0.0in /  0mm WeatherDisplay:10.37 W/m2 FEW
14:19 0.2 °F /  -17.7 °C -0.7 °F /  -18.2 °C 1002.9in /  33958.2hPa Calm     94% 0.0in /  0mm WeatherDisplay:10.37 W/m2 FEW
14:24 0.2 °F /  -17.7 °C -0.7 °F /  -18.2 °C 1002.9in /  33958.2hPa Calm     94% 0.0in /  0mm WeatherDisplay:10.37 W/m2 FEW
14:29 0.2 °F /  -17.7 °C -0.7 °F /  -18.2 °C 1002.9in /  33958.2hPa Calm     94% 0.0in /  0mm WeatherDisplay:10.37 W/m2 FEW
14:34 0.2 °F /  -17.7 °C -0.7 °F /  -18.2 °C 1002.9in /  33958.2hPa Calm     94% 0.0in /  0mm WeatherDisplay:10.37 W/m2 FEW
14:39 0.2 °F /  -17.7 °C -0.7 °F /  -18.2 °C 1002.6in /  33948hPa Calm     94% 0.0in /  0mm WeatherDisplay:10.37 W/m2 FEW
14:44 0.1 °F /  -17.7 °C -0.7 °F /  -18.2 °C 1002.6in /  33948hPa Calm     94% 0.0in /  0mm WeatherDisplay:10.37 W/m2 FEW
14:49 0.1 °F /  -17.7 °C -0.7 °F /  -18.2 °C 1002.6in /  33948hPa Calm     94% 0.0in /  0mm WeatherDisplay:10.37 W/m2 FEW
14:54 0.1 °F /  -17.7 °C -0.7 °F /  -18.2 °C 1002.6in /  33948hPa Calm     94% 0.0in /  0mm WeatherDisplay:10.37 W/m2 FEW
14:59 0.1 °F /  -17.7 °C -0.7 °F /  -18.2 °C 1002.6in /  33948hPa Calm     94% 0.0in /  0mm WeatherDisplay:10.37 W/m2 FEW
15:04 0.1 °F /  -17.7 °C -0.8 °F /  -18.2 °C 1002.6in /  33948hPa Calm     94% 0.0in /  0mm WeatherDisplay:10.37 W/m2 FEW
15:09 0.1 °F /  -17.7 °C -0.8 °F /  -18.2 °C 1002.6in /  33948hPa Calm     94% 0.0in /  0mm WeatherDisplay:10.37 W/m2 FEW
15:14 0.1 °F /  -17.7 °C -0.8 °F /  -18.2 °C 1002.6in /  33948hPa Calm     94% 0.0in /  0mm WeatherDisplay:10.37 W/m2 FEW
15:19 0.1 °F /  -17.7 °C -0.8 °F /  -18.2 °C 1002.3in /  33937.9hPa Calm     94% 0.0in /  0mm WeatherDisplay:10.37 W/m2 FEW
15:24 0.1 °F /  -17.7 °C -0.8 °F /  -18.2 °C 1002.3in /  33937.9hPa Calm     94% 0.0in /  0mm WeatherDisplay:10.37 W/m2 FEW
15:29 0.1 °F /  -17.7 °C -0.8 °F /  -18.2 °C 1002.3in /  33937.9hPa Calm     94% 0.0in /  0mm WeatherDisplay:10.37 W/m2 FEW
15:34 0.1 °F /  -17.7 °C -0.8 °F /  -18.2 °C 1002.3in /  33937.9hPa Calm     94% 0.0in /  0mm WeatherDisplay:10.37 W/m2 FEW
15:39 0.0 °F /  -17.8 °C -0.8 °F /  -18.2 °C 1002.3in /  33937.9hPa Calm     94% 0.0in /  0mm WeatherDisplay:10.37 W/m2 FEW
15:44 0.0 °F /  -17.8 °C -0.8 °F /  -18.2 °C 1002.3in /  33937.9hPa Calm     94% 0.0in /  0mm WeatherDisplay:10.37 W/m2 FEW
15:49 0.0 °F /  -17.8 °C -0.8 °F /  -18.2 °C 1002.3in /  33937.9hPa Calm     94% 0.0in /  0mm WeatherDisplay:10.37 W/m2 FEW
15:54 0.0 °F /  -17.8 °C -0.8 °F /  -18.2 °C 1001.9in /  33924.3hPa ENE 1.3mph /  2.1km/h 6.4mph /  10.3km/h 94% 0.0in /  0mm WeatherDisplay:10.37 W/m2 FEW
15:59 -0.1 °F /  -17.8 °C -0.9 °F /  -18.3 °C 1001.9in /  33924.3hPa Calm     94% 0.0in /  0mm WeatherDisplay:10.37 W/m2 FEW
16:04 -0.1 °F /  -17.8 °C -0.9 °F /  -18.3 °C 1001.9in /  33924.3hPa Calm     94% 0.0in /  0mm WeatherDisplay:10.37 W/m2 FEW
16:09 -0.1 °F /  -17.8 °C -0.9 °F /  -18.3 °C 1001.9in /  33924.3hPa Calm     94% 0.0in /  0mm WeatherDisplay:10.37 W/m2 FEW
16:14 -0.1 °F /  -17.8 °C -0.9 °F /  -18.3 °C 1001.9in /  33924.3hPa Calm     94% 0.0in /  0mm WeatherDisplay:10.37 W/m2 FEW
16:19 -0.1 °F /  -17.8 °C -0.9 °F /  -18.3 °C 1001.9in /  33924.3hPa Calm     94% 0.0in /  0mm WeatherDisplay:10.37 W/m2 FEW
16:24 -0.1 °F /  -17.8 °C -0.9 °F /  -18.3 °C 1001.9in /  33924.3hPa Calm     94% 0.0in /  0mm WeatherDisplay:10.37 W/m2 FEW
16:29 -0.1 °F /  -17.8 °C -0.9 °F /  -18.3 °C 1001.6in /  33914.2hPa Calm     94% 0.0in /  0mm WeatherDisplay:10.37 W/m2 FEW
16:34 -0.1 °F /  -17.8 °C -0.9 °F /  -18.3 °C 1001.6in /  33914.2hPa Calm     94% 0.0in /  0mm WeatherDisplay:10.37 W/m2 FEW
16:39 -0.1 °F /  -17.8 °C -0.9 °F /  -18.3 °C 1001.6in /  33914.2hPa ENE 0.6mph /  1km/h 3.7mph /  6km/h 94% 0.0in /  0mm WeatherDisplay:10.37 W/m2 FEW
16:44 -0.2 °F /  -17.9 °C -1.0 °F /  -18.3 °C 1001.6in /  33914.2hPa ENE 0.5mph /  0.8km/h 3.7mph /  6km/h 94% 0.0in /  0mm WeatherDisplay:10.37 W/m2 FEW
16:49 -0.2 °F /  -17.9 °C -1.0 °F /  -18.3 °C 1001.6in /  33914.2hPa Calm     94% 0.0in /  0mm WeatherDisplay:10.37 W/m2 FEW
16:54 -0.2 °F /  -17.9 °C -1.0 °F /  -18.3 °C 1001.6in /  33914.2hPa Calm     94% 0.0in /  0mm WeatherDisplay:10.37 W/m2 FEW
16:59 -0.2 °F /  -17.9 °C -1.0 °F /  -18.3 °C 1001.6in /  33914.2hPa Calm     94% 0.0in /  0mm WeatherDisplay:10.37 W/m2 FEW
17:04 -0.2 °F /  -17.9 °C -1.1 °F /  -18.4 °C 1001.2in /  33900.6hPa ENE 1.4mph /  2.3km/h 3.7mph /  6km/h 94% 0.0in /  0mm WeatherDisplay:10.37 W/m2 FEW
17:09 -0.2 °F /  -17.9 °C -1.1 °F /  -18.4 °C 1001.2in /  33900.6hPa Calm     94% 0.0in /  0mm WeatherDisplay:10.37 W/m2 FEW
17:14 -0.2 °F /  -17.9 °C -1.1 °F /  -18.4 °C 1001.2in /  33900.6hPa Calm     94% 0.0in /  0mm WeatherDisplay:10.37 W/m2 FEW
17:19 -0.3 °F /  -17.9 °C -1.1 °F /  -18.4 °C 1001.2in /  33900.6hPa Calm     94% 0.0in /  0mm WeatherDisplay:10.37 W/m2 FEW
17:24 -0.3 °F /  -17.9 °C -1.1 °F /  -18.4 °C 1001.2in /  33900.6hPa Calm   3.7mph /  6km/h 94% 0.0in /  0mm WeatherDisplay:10.37 W/m2 FEW
17:29 -0.3 °F /  -17.9 °C -1.1 °F /  -18.4 °C 1001.2in /  33900.6hPa Calm     94% 0.0in /  0mm WeatherDisplay:10.37 W/m2 FEW
17:34 -0.3 °F /  -17.9 °C -1.1 °F /  -18.4 °C 1001.2in /  33900.6hPa Calm     94% 0.0in /  0mm WeatherDisplay:10.37 W/m2 FEW
17:39 -0.3 °F /  -17.9 °C -1.1 °F /  -18.4 °C 1001.2in /  33900.6hPa Calm     94% 0.0in /  0mm WeatherDisplay:10.37 W/m2 FEW
17:44 -0.3 °F /  -17.9 °C -1.2 °F /  -18.4 °C 1001.2in /  33900.6hPa Calm     94% 0.0in /  0mm WeatherDisplay:10.37 W/m2 FEW
17:49 -0.3 °F /  -17.9 °C -1.2 °F /  -18.4 °C 1001.2in /  33900.6hPa ENE 2.1mph /  3.4km/h 3.7mph /  6km/h 94% 0.0in /  0mm WeatherDisplay:10.37 W/m2 FEW
17:54 -0.3 °F /  -17.9 °C -1.2 °F /  -18.4 °C 1001.2in /  33900.6hPa ENE 0.5mph /  0.8km/h   94% 0.0in /  0mm WeatherDisplay:10.37 W/m2 FEW
17:59 -0.4 °F /  -18 °C -1.2 °F /  -18.4 °C 1000.9in /  33890.5hPa Calm     94% 0.0in /  0mm WeatherDisplay:10.37 W/m2 FEW
18:04 -0.4 °F /  -18 °C -1.2 °F /  -18.4 °C 1000.9in /  33890.5hPa Calm     94% 0.0in /  0mm WeatherDisplay:10.37 W/m2 FEW
18:09 -0.4 °F /  -18 °C -1.2 °F /  -18.4 °C 1000.9in /  33890.5hPa Calm     94% 0.0in /  0mm WeatherDisplay:10.37 W/m2 FEW
18:14 -0.4 °F /  -18 °C -1.2 °F /  -18.4 °C 1000.9in /  33890.5hPa ENE 0.5mph /  0.8km/h 6.4mph /  10.3km/h 94% 0.0in /  0mm WeatherDisplay:10.37 W/m2 FEW
18:19 -0.4 °F /  -18 °C -1.2 °F /  -18.4 °C 1000.9in /  33890.5hPa ENE 1.3mph /  2.1km/h 5.6mph /  9km/h 94% 0.0in /  0mm WeatherDisplay:10.37 W/m2 FEW
18:24 -0.4 °F /  -18 °C -1.3 °F /  -18.5 °C 1000.9in /  33890.5hPa ENE 0.6mph /  1km/h 5.6mph /  9km/h 94% 0.0in /  0mm WeatherDisplay:10.37 W/m2 FEW
18:29 -0.4 °F /  -18 °C -1.3 °F /  -18.5 °C 1000.9in /  33890.5hPa ENE 1.6mph /  2.6km/h 5.6mph /  9km/h 94% 0.0in /  0mm WeatherDisplay:10.37 W/m2 FEW
18:34 -0.4 °F /  -18 °C -1.3 °F /  -18.5 °C 1000.9in /  33890.5hPa Calm     94% 0.0in /  0mm WeatherDisplay:10.37 W/m2 FEW
18:39 -0.4 °F /  -18 °C -1.3 °F /  -18.5 °C 1000.6in /  33880.3hPa NE 0.2mph /  0.3km/h 3.7mph /  6km/h 94% 0.0in /  0mm WeatherDisplay:10.37 W/m2 FEW
18:44 -0.4 °F /  -18 °C -1.3 °F /  -18.5 °C 1000.9in /  33890.5hPa ENE 2.7mph /  4.3km/h 5.6mph /  9km/h 94% 0.0in /  0mm WeatherDisplay:10.37 W/m2 FEW
18:49 -0.5 °F /  -18.1 °C -1.3 °F /  -18.5 °C 1000.6in /  33880.3hPa ENE 0.8mph /  1.3km/h 5.6mph /  9km/h 94% 0.0in /  0mm WeatherDisplay:10.37 W/m2 FEW
18:54 -0.4 °F /  -18 °C -1.3 °F /  -18.5 °C 1000.6in /  33880.3hPa Calm     94% 0.0in /  0mm WeatherDisplay:10.37 W/m2 FEW
18:59 -0.5 °F /  -18.1 °C -1.3 °F /  -18.5 °C 1000.6in /  33880.3hPa Calm     94% 0.0in /  0mm WeatherDisplay:10.37 W/m2 FEW
19:04 -0.5 °F /  -18.1 °C -1.3 °F /  -18.5 °C 1000.6in /  33880.3hPa Calm     94% 0.0in /  0mm WeatherDisplay:10.37 W/m2 FEW
19:09 -0.5 °F /  -18.1 °C -1.3 °F /  -18.5 °C 1000.6in /  33880.3hPa NE 3.9mph /  6.3km/h 7.4mph /  11.9km/h 94% 0.0in /  0mm WeatherDisplay:10.37 W/m2 FEW
19:14 -0.5 °F /  -18.1 °C -1.3 °F /  -18.5 °C 1000.6in /  33880.3hPa Calm     94% 0.0in /  0mm WeatherDisplay:10.37 W/m2 FEW
19:19 -0.5 °F /  -18.1 °C -1.3 °F /  -18.5 °C 1000.6in /  33880.3hPa ENE 4.2mph /  6.8km/h 7.4mph /  11.9km/h 94% 0.0in /  0mm WeatherDisplay:10.37 W/m2 FEW
19:24 -0.6 °F /  -18.1 °C -1.4 °F /  -18.6 °C 1000.6in /  33880.3hPa Calm   3.2mph /  5.1km/h 94% 0.0in /  0mm WeatherDisplay:10.37 W/m2 FEW
19:29 -0.6 °F /  -18.1 °C -1.4 °F /  -18.6 °C 1000.2in /  33866.8hPa ENE 0.3mph /  0.5km/h 1.6mph /  2.6km/h 94% 0.0in /  0mm WeatherDisplay:10.37 W/m2 FEW
19:34 -0.6 °F /  -18.1 °C -1.4 °F /  -18.6 °C 1000.2in /  33866.8hPa Calm     94% 0.0in /  0mm WeatherDisplay:10.37 W/m2 FEW
19:39 -0.6 °F /  -18.1 °C -1.4 °F /  -18.6 °C 1000.6in /  33880.3hPa Calm     94% 0.0in /  0mm WeatherDisplay:10.37 W/m2 FEW
19:44 -0.6 °F /  -18.1 °C -1.4 °F /  -18.6 °C 1000.2in /  33866.8hPa Calm     94% 0.0in /  0mm WeatherDisplay:10.37 W/m2 FEW
19:49 -0.6 °F /  -18.1 °C -1.4 °F /  -18.6 °C 1000.2in /  33866.8hPa Calm     94% 0.0in /  0mm WeatherDisplay:10.37 W/m2 FEW
19:54 -0.6 °F /  -18.1 °C -1.4 °F /  -18.6 °C 1000.2in /  33866.8hPa ENE 0.2mph /  0.3km/h 1.9mph /  3.1km/h 94% 0.0in /  0mm WeatherDisplay:10.37 W/m2 FEW
19:59 -0.6 °F /  -18.1 °C -1.4 °F /  -18.6 °C 1000.2in /  33866.8hPa Calm     94% 0.0in /  0mm WeatherDisplay:10.37 W/m2 FEW
20:04 -0.6 °F /  -18.1 °C -1.4 °F /  -18.6 °C 1000.2in /  33866.8hPa East 0.5mph /  0.8km/h 3.7mph /  6km/h 94% 0.0in /  0mm WeatherDisplay:10.37 W/m2 FEW
20:09 -0.6 °F /  -18.1 °C -1.4 °F /  -18.6 °C 1000.2in /  33866.8hPa ENE 2.4mph /  3.9km/h 7.4mph /  11.9km/h 94% 0.0in /  0mm WeatherDisplay:10.37 W/m2 FEW
20:14 -0.6 °F /  -18.1 °C -1.4 °F /  -18.6 °C 999.9in /  33856.6hPa Calm     94% 0.0in /  0mm WeatherDisplay:10.37 W/m2 FEW
20:19 -0.6 °F /  -18.1 °C -1.4 °F /  -18.6 °C 999.9in /  33856.6hPa Calm     94% 0.0in /  0mm WeatherDisplay:10.37 W/m2 FEW
20:24 -0.6 °F /  -18.1 °C -1.4 °F /  -18.6 °C 999.9in /  33856.6hPa Calm     94% 0.0in /  0mm WeatherDisplay:10.37 W/m2 FEW
20:29 -0.6 °F /  -18.1 °C -1.4 °F /  -18.6 °C 999.9in /  33856.6hPa Calm     94% 0.0in /  0mm WeatherDisplay:10.37 W/m2 FEW
20:34 -0.6 °F /  -18.1 °C -1.4 °F /  -18.6 °C 999.9in /  33856.6hPa Calm     94% 0.0in /  0mm WeatherDisplay:10.37 W/m2 FEW
20:39 -0.6 °F /  -18.1 °C -1.4 °F /  -18.6 °C 999.9in /  33856.6hPa Calm     94% 0.0in /  0mm WeatherDisplay:10.37 W/m2 FEW
20:44 -0.6 °F /  -18.1 °C -1.4 °F /  -18.6 °C 999.9in /  33856.6hPa NE 2.3mph /  3.7km/h 5.6mph /  9km/h 94% 0.0in /  0mm WeatherDisplay:10.37 W/m2 FEW
20:49 -0.6 °F /  -18.1 °C -1.4 °F /  -18.6 °C 999.9in /  33856.6hPa ENE 3.7mph /  6km/h 7.4mph /  11.9km/h 94% 0.0in /  0mm WeatherDisplay:10.37 W/m2 FEW
20:54 -0.7 °F /  -18.2 °C -1.5 °F /  -18.6 °C 999.9in /  33856.6hPa Calm     94% 0.0in /  0mm WeatherDisplay:10.37 W/m2 FEW
20:59 -0.7 °F /  -18.2 °C -1.5 °F /  -18.6 °C 999.9in /  33856.6hPa Calm     94% 0.0in /  0mm WeatherDisplay:10.37 W/m2 FEW
21:04 -0.7 °F /  -18.2 °C -1.5 °F /  -18.6 °C 999.9in /  33856.6hPa Calm     94% 0.0in /  0mm WeatherDisplay:10.37 W/m2 FEW
21:09 -0.7 °F /  -18.2 °C -1.5 °F /  -18.6 °C 999.5in /  33843.1hPa Calm     94% 0.0in /  0mm WeatherDisplay:10.37 W/m2 FEW
21:14 -0.7 °F /  -18.2 °C -1.6 °F /  -18.7 °C 999.5in /  33843.1hPa Calm     94% 0.0in /  0mm WeatherDisplay:10.37 W/m2 FEW
21:19 -0.7 °F /  -18.2 °C -1.6 °F /  -18.7 °C 999.5in /  33843.1hPa Calm     94% 0.0in /  0mm WeatherDisplay:10.37 W/m2 FEW
21:24 -0.7 °F /  -18.2 °C -1.6 °F /  -18.7 °C 999.5in /  33843.1hPa ENE 6.0mph /  9.7km/h 9.3mph /  15km/h 94% 0.0in /  0mm WeatherDisplay:10.37 W/m2 FEW
21:29 -0.7 °F /  -18.2 °C -1.6 °F /  -18.7 °C 999.5in /  33843.1hPa ENE 4.3mph /  6.9km/h 5.6mph /  9km/h 94% 0.0in /  0mm WeatherDisplay:10.37 W/m2 FEW
21:34 -0.8 °F /  -18.2 °C -1.6 °F /  -18.7 °C 999.5in /  33843.1hPa ENE 1.9mph /  3.1km/h 5.6mph /  9km/h 94% 0.0in /  0mm WeatherDisplay:10.37 W/m2 FEW
21:39 -0.8 °F /  -18.2 °C -1.6 °F /  -18.7 °C 999.5in /  33843.1hPa ENE 1.0mph /  1.6km/h 5.6mph /  9km/h 94% 0.0in /  0mm WeatherDisplay:10.37 W/m2 FEW
21:44 -0.8 °F /  -18.2 °C -1.6 °F /  -18.7 °C 999.5in /  33843.1hPa ENE 4.0mph /  6.4km/h 7.4mph /  11.9km/h 94% 0.0in /  0mm WeatherDisplay:10.37 W/m2 FEW
21:49 -0.8 °F /  -18.2 °C -1.6 °F /  -18.7 °C 999.5in /  33843.1hPa Calm     94% 0.0in /  0mm WeatherDisplay:10.37 W/m2 FEW
21:54 -0.8 °F /  -18.2 °C -1.6 °F /  -18.7 °C 999.2in /  33832.9hPa ENE 1.4mph /  2.3km/h 3.7mph /  6km/h 94% 0.0in /  0mm WeatherDisplay:10.37 W/m2 FEW
21:59 -0.8 °F /  -18.2 °C -1.6 °F /  -18.7 °C 999.2in /  33832.9hPa ENE 4.0mph /  6.4km/h 7.4mph /  11.9km/h 94% 0.0in /  0mm WeatherDisplay:10.37 W/m2 FEW
22:04 -0.8 °F /  -18.2 °C -1.6 °F /  -18.7 °C 999.2in /  33832.9hPa ENE 1.6mph /  2.6km/h 3.7mph /  6km/h 94% 0.0in /  0mm WeatherDisplay:10.37 W/m2 FEW
22:09 -0.8 °F /  -18.2 °C -1.7 °F /  -18.7 °C 999.2in /  33832.9hPa ENE 5.1mph /  8.2km/h 6.4mph /  10.3km/h 94% 0.0in /  0mm WeatherDisplay:10.37 W/m2 FEW
22:14 -0.8 °F /  -18.2 °C -1.7 °F /  -18.7 °C 999.2in /  33832.9hPa ENE 0.3mph /  0.5km/h 4.8mph /  7.7km/h 94% 0.0in /  0mm WeatherDisplay:10.37 W/m2 FEW
22:19 -0.8 °F /  -18.2 °C -1.7 °F /  -18.7 °C 999.2in /  33832.9hPa Calm   5.6mph /  9km/h 94% 0.0in /  0mm WeatherDisplay:10.37 W/m2 FEW
22:24 -0.8 °F /  -18.2 °C -1.7 °F /  -18.7 °C 999.2in /  33832.9hPa Calm   1.6mph /  2.6km/h 94% 0.0in /  0mm WeatherDisplay:10.37 W/m2 FEW
22:29 -0.8 °F /  -18.2 °C -1.7 °F /  -18.7 °C 999.2in /  33832.9hPa Calm   4.8mph /  7.7km/h 94% 0.0in /  0mm WeatherDisplay:10.37 W/m2 FEW
22:35 -0.8 °F /  -18.2 °C -1.7 °F /  -18.7 °C 999.2in /  33832.9hPa Calm     94% 0.0in /  0mm WeatherDisplay:10.37 W/m2 FEW
22:40 -0.8 °F /  -18.2 °C -1.7 °F /  -18.7 °C 999.2in /  33832.9hPa Calm     94% 0.0in /  0mm WeatherDisplay:10.37 W/m2 FEW
22:45 -0.8 °F /  -18.2 °C -1.7 °F /  -18.7 °C 999.2in /  33832.9hPa ENE 5.0mph /  8km/h 7.4mph /  11.9km/h 94% 0.0in /  0mm WeatherDisplay:10.37 W/m2 FEW
22:50 -0.9 °F /  -18.3 °C -1.7 °F /  -18.7 °C 998.9in /  33822.8hPa ENE 4.3mph /  6.9km/h 7.4mph /  11.9km/h 94% 0.0in /  0mm WeatherDisplay:10.37 W/m2 FEW
22:55 -0.9 °F /  -18.3 °C -1.7 °F /  -18.7 °C 998.9in /  33822.8hPa ENE 3.7mph /  6km/h 7.4mph /  11.9km/h 94% 0.0in /  0mm WeatherDisplay:10.37 W/m2 FEW
23:00 -0.9 °F /  -18.3 °C -1.7 °F /  -18.7 °C 998.9in /  33822.8hPa ENE 6.4mph /  10.3km/h 14.8mph /  23.8km/h 94% 0.0in /  0mm WeatherDisplay:10.37 W/m2 FEW
23:05 -0.9 °F /  -18.3 °C -1.8 °F /  -18.8 °C 998.9in /  33822.8hPa ENE 4.5mph /  7.2km/h 9.3mph /  15km/h 94% 0.0in /  0mm WeatherDisplay:10.37 W/m2 FEW
23:10 -0.9 °F /  -18.3 °C -1.8 °F /  -18.8 °C 998.9in /  33822.8hPa ENE 2.9mph /  4.7km/h 5.6mph /  9km/h 94% 0.0in /  0mm WeatherDisplay:10.37 W/m2 FEW
23:15 -0.9 °F /  -18.3 °C -1.8 °F /  -18.8 °C 998.9in /  33822.8hPa ENE 6.1mph /  9.8km/h 9.3mph /  15km/h 94% 0.0in /  0mm WeatherDisplay:10.37 W/m2 FEW
23:20 -0.9 °F /  -18.3 °C -1.8 °F /  -18.8 °C 998.9in /  33822.8hPa ENE 1.1mph /  1.8km/h 5.6mph /  9km/h 94% 0.0in /  0mm WeatherDisplay:10.37 W/m2 FEW
23:25 -1.0 °F /  -18.3 °C -1.8 °F /  -18.8 °C 998.9in /  33822.8hPa Calm     94% 0.0in /  0mm WeatherDisplay:10.37 W/m2 FEW
23:30 -1.0 °F /  -18.3 °C -1.8 °F /  -18.8 °C 998.9in /  33822.8hPa ENE 1.4mph /  2.3km/h 5.6mph /  9km/h 94% 0.0in /  0mm WeatherDisplay:10.37 W/m2 FEW
23:35 -1.0 °F /  -18.3 °C -1.8 °F /  -18.8 °C 998.5in /  33809.2hPa ENE 0.6mph /  1km/h 5.6mph /  9km/h 94% 0.0in /  0mm WeatherDisplay:10.37 W/m2 FEW
23:40 -1.0 °F /  -18.3 °C -1.8 °F /  -18.8 °C 998.9in /  33822.8hPa ENE 6.9mph /  11.1km/h 9.3mph /  15km/h 94% 0.0in /  0mm WeatherDisplay:10.37 W/m2 FEW
23:45 -1.0 °F /  -18.3 °C -1.8 °F /  -18.8 °C 998.5in /  33809.2hPa ENE 4.5mph /  7.2km/h 7.4mph /  11.9km/h 94% 0.0in /  0mm WeatherDisplay:10.37 W/m2 FEW
23:50 -1.0 °F /  -18.3 °C -1.8 °F /  -18.8 °C 998.5in /  33809.2hPa ENE 4.2mph /  6.8km/h 7.4mph /  11.9km/h 94% 0.0in /  0mm WeatherDisplay:10.37 W/m2 FEW
23:55 -1.0 °F /  -18.3 °C -1.8 °F /  -18.8 °C 998.5in /  33809.2hPa ENE 2.7mph /  4.3km/h 5.6mph /  9km/h 94% 0.0in /  0mm WeatherDisplay:10.37 W/m2 FEW
Tuulensuunkaari, Veikkola, Suomi
Compliments of Weather Underground - 2.75 mb